createdAt,value
2019-04-07T00:01:13.908Z,100160.10
2019-04-07T00:03:47.121Z,100158.34
2019-04-07T00:06:20.340Z,100154.42
2019-04-07T00:08:53.593Z,100155.31
2019-04-07T00:11:26.687Z,100157.06
2019-04-07T00:14:00.993Z,100157.08
2019-04-07T00:16:33.900Z,100154.47
2019-04-07T00:19:06.728Z,100154.45
2019-04-07T00:21:39.654Z,100157.09
2019-04-07T00:24:12.589Z,100158.87
2019-04-07T00:26:45.490Z,100153.59
2019-04-07T00:29:19.880Z,100156.25
2019-04-07T00:31:52.889Z,100154.49
2019-04-07T00:34:25.790Z,100148.36
2019-04-07T00:36:59.002Z,100145.27
2019-04-07T00:39:32.304Z,100143.11
2019-04-07T00:42:05.302Z,100143.55
2019-04-07T00:44:38.882Z,100140.92
2019-04-07T00:47:11.878Z,100146.59
2019-04-07T00:49:45.080Z,100142.66
2019-04-07T00:52:22.171Z,100143.11
2019-04-07T00:54:55.562Z,100136.96
2019-04-07T00:57:30.118Z,100131.70
2019-04-07T01:00:04.404Z,100135.22
2019-04-07T01:02:38.919Z,100139.59
2019-04-07T01:05:12.717Z,100136.53
2019-04-07T01:07:46.323Z,100133.89
2019-04-07T01:10:19.462Z,100138.27
2019-04-07T01:12:52.354Z,100138.72
2019-04-07T01:15:25.361Z,100141.35
2019-04-07T01:17:58.764Z,100139.58
2019-04-07T01:20:32.971Z,100136.98
2019-04-07T01:23:08.120Z,100133.90
2019-04-07T01:25:41.170Z,100133.02
2019-04-07T01:28:14.199Z,100141.33
2019-04-07T01:30:48.015Z,100146.15
2019-04-07T01:33:22.350Z,100143.95
2019-04-07T01:35:57.147Z,100143.97
2019-04-07T01:38:30.738Z,100142.63
2019-04-07T01:41:15.304Z,100154.91
2019-04-07T01:44:00.934Z,100157.07
2019-04-07T01:47:01.585Z,100156.61
2019-04-07T01:49:46.592Z,100159.25
2019-04-07T01:52:50.475Z,100154.02
2019-04-07T01:55:45.532Z,100155.75
2019-04-07T01:58:40.712Z,100157.44
2019-04-07T02:01:28.677Z,100149.14
2019-04-07T02:04:20.445Z,100154.80
2019-04-07T02:07:12.132Z,100155.64
2019-04-07T02:09:57.258Z,100150.33
2019-04-07T02:12:42.512Z,100152.52
2019-04-07T02:15:40.596Z,100148.54
2019-04-07T02:18:18.789Z,100153.34
2019-04-07T02:21:09.678Z,100150.72
2019-04-07T02:23:52.913Z,100152.45
2019-04-07T02:26:40.595Z,100154.22
2019-04-07T02:29:40.039Z,100153.77
2019-04-07T02:32:42.038Z,100147.17
2019-04-07T02:35:40.301Z,100148.47
2019-04-07T02:38:27.790Z,100152.85
2019-04-07T02:41:19.876Z,100152.37
2019-04-07T02:44:23.905Z,100146.70
2019-04-07T02:47:18.448Z,100156.28
2019-04-07T02:50:08.872Z,100154.07
2019-04-07T02:52:57.179Z,100150.97
2019-04-07T02:55:39.136Z,100155.30
2019-04-07T02:58:27.153Z,100158.36
2019-04-07T03:01:31.622Z,100154.87
2019-04-07T03:04:24.216Z,100153.09
2019-04-07T03:07:15.244Z,100152.64
2019-04-07T03:10:07.681Z,100146.95
2019-04-07T03:12:48.751Z,100148.23
2019-04-07T03:15:41.358Z,100148.66
2019-04-07T03:18:31.813Z,100143.34
2019-04-07T03:21:27.942Z,100149.47
2019-04-07T03:24:17.389Z,100145.95
2019-04-07T03:27:15.732Z,100150.72
2019-04-07T03:30:11.465Z,100146.75
2019-04-07T03:33:05.828Z,100145.84
2019-04-07T03:36:04.023Z,100144.08
2019-04-07T03:38:59.065Z,100142.70
2019-04-07T03:41:44.001Z,100144.89
2019-04-07T03:44:25.620Z,100150.98
2019-04-07T03:47:18.377Z,100148.81
2019-04-07T03:50:03.354Z,100149.25
2019-04-07T03:52:55.181Z,100152.27
2019-04-07T03:56:05.952Z,100151.81
2019-04-07T03:58:49.458Z,100153.50
2019-04-07T04:01:41.449Z,100156.53
2019-04-07T04:04:31.392Z,100156.50
2019-04-07T04:07:29.972Z,100152.54
2019-04-07T04:10:14.192Z,100153.40
2019-04-07T04:13:09.133Z,100157.34
2019-04-07T04:15:53.205Z,100157.73
2019-04-07T04:18:26.389Z,100161.22
2019-04-07T04:20:59.656Z,100167.29
2019-04-07T04:23:33.464Z,100165.09
2019-04-07T04:26:06.601Z,100169.03
2019-04-07T04:28:39.431Z,100164.70
2019-04-07T04:31:13.000Z,100166.08
2019-04-07T04:33:46.406Z,100171.36
2019-04-07T04:36:19.395Z,100170.48
2019-04-07T04:38:52.822Z,100171.31
2019-04-07T04:41:27.393Z,100173.92
2019-04-07T04:44:02.184Z,100179.23
2019-04-07T04:46:35.205Z,100179.66
2019-04-07T04:49:08.048Z,100178.64
2019-04-07T04:51:42.651Z,100183.34
2019-04-07T04:54:17.206Z,100187.17
2019-04-07T04:56:50.378Z,100183.63
2019-04-07T04:59:23.338Z,100182.33
2019-04-07T05:01:56.451Z,100185.80
2019-04-07T05:04:29.403Z,100187.13
2019-04-07T05:07:02.189Z,100197.23
2019-04-07T05:09:44.281Z,100195.06
2019-04-07T05:12:10.543Z,100190.33
2019-04-07T05:14:43.351Z,100189.46
2019-04-07T05:17:16.424Z,100199.09
2019-04-07T05:19:49.803Z,100192.12
2019-04-07T05:22:22.756Z,100200.06
2019-04-07T05:24:55.617Z,100204.05
2019-04-07T05:27:28.398Z,100208.95
2019-04-07T05:30:01.272Z,100212.49
2019-04-07T05:32:34.181Z,100208.53
2019-04-07T05:35:07.881Z,100212.84
2019-04-07T05:37:41.762Z,100213.84
2019-04-07T05:40:15.494Z,100212.63
2019-04-07T05:42:48.469Z,100206.24
2019-04-07T05:45:21.468Z,100203.28
2019-04-07T05:47:54.406Z,100213.48
2019-04-07T05:50:28.772Z,100217.49
2019-04-07T05:53:01.974Z,100216.20
2019-04-07T05:55:34.824Z,100216.67
2019-04-07T05:58:08.498Z,100216.67
2019-04-07T06:00:45.757Z,100222.38
2019-04-07T06:03:17.592Z,100218.50
2019-04-07T06:05:51.253Z,100221.62
2019-04-07T06:08:33.798Z,100217.77
2019-04-07T06:11:01.555Z,100218.22
2019-04-07T06:13:35.524Z,100222.22
2019-04-07T06:16:09.485Z,100222.69
2019-04-07T06:18:43.362Z,100217.45
2019-04-07T06:21:17.266Z,100219.23
2019-04-07T06:23:50.778Z,100224.09
2019-04-07T06:26:24.023Z,100220.16
2019-04-07T06:28:58.756Z,100218.43
2019-04-07T06:31:33.753Z,100218.88
2019-04-07T06:34:08.169Z,100221.97
2019-04-07T06:36:41.053Z,100214.08
2019-04-07T06:39:17.168Z,100214.51
2019-04-07T06:41:48.921Z,100217.14
2019-04-07T06:44:23.188Z,100216.68
2019-04-07T06:47:21.469Z,100217.98
2019-04-07T06:50:14.130Z,100225.40
2019-04-07T06:53:20.635Z,100221.48
2019-04-07T06:56:14.523Z,100222.73
2019-04-07T06:59:13.855Z,100226.17
2019-04-07T07:02:06.485Z,100228.34
2019-04-07T07:05:07.296Z,100220.80
2019-04-07T07:07:59.705Z,100226.84
2019-04-07T07:10:55.216Z,100225.44
2019-04-07T07:13:41.323Z,100226.19
2019-04-07T07:16:41.086Z,100224.78
2019-04-07T07:19:29.562Z,100222.09
2019-04-07T07:22:26.796Z,100223.01
2019-04-07T07:25:01.278Z,100223.23
2019-04-07T07:27:38.845Z,100230.97
2019-04-07T07:30:10.650Z,100225.05
2019-04-07T07:32:44.237Z,100225.23
2019-04-07T07:35:18.021Z,100231.16
2019-04-07T07:37:51.127Z,100227.02
2019-04-07T07:40:24.200Z,100229.36
2019-04-07T07:42:59.115Z,100232.08
2019-04-07T07:45:37.280Z,100232.48
2019-04-07T07:48:10.925Z,100239.67
2019-04-07T07:50:44.598Z,100234.28
2019-04-07T07:53:21.896Z,100231.58
2019-04-07T07:55:53.517Z,100231.05
2019-04-07T07:58:30.823Z,100238.68
2019-04-07T08:01:01.754Z,100238.42
2019-04-07T08:03:35.181Z,100240.84
2019-04-07T08:06:08.491Z,100244.59
2019-04-07T08:08:45.178Z,100238.05
2019-04-07T08:11:17.544Z,100239.92
2019-04-07T08:13:53.626Z,100242.18
2019-04-07T08:16:29.385Z,100238.31
2019-04-07T08:19:01.556Z,100243.09
2019-04-07T08:21:34.528Z,100237.55
2019-04-07T08:24:08.060Z,100239.44
2019-04-07T08:26:41.059Z,100244.11
2019-04-07T08:29:14.708Z,100244.61
2019-04-07T08:31:51.476Z,100244.84
2019-04-07T08:34:23.430Z,100242.06
2019-04-07T08:36:57.442Z,100242.20
2019-04-07T08:39:33.568Z,100237.31
2019-04-07T08:42:09.736Z,100232.31
2019-04-07T08:44:39.751Z,100201.03
2019-04-07T08:47:18.877Z,100231.70
2019-04-07T08:49:48.083Z,100231.12
2019-04-07T08:52:21.244Z,100233.00
2019-04-07T08:54:54.043Z,100230.44
2019-04-07T08:57:30.099Z,100227.80
2019-04-07T09:00:01.637Z,100232.28
2019-04-07T09:02:36.071Z,100226.25
2019-04-07T09:05:10.357Z,100229.28
2019-04-07T09:07:43.547Z,100231.56
2019-04-07T09:10:21.778Z,100231.48
2019-04-07T09:12:58.708Z,100225.95
2019-04-07T09:15:36.889Z,100224.91
2019-04-07T09:18:28.619Z,100223.94
2019-04-07T09:21:20.459Z,100227.98
2019-04-07T09:24:12.655Z,100221.00
2019-04-07T09:26:56.433Z,100226.77
2019-04-07T09:29:58.172Z,100221.03
2019-04-07T09:32:54.732Z,100224.11
2019-04-07T09:35:46.621Z,100232.22
2019-04-07T09:38:51.277Z,100226.16
2019-04-07T09:41:35.307Z,100226.41
2019-04-07T09:44:37.240Z,100218.14
2019-04-07T09:47:25.910Z,100230.04
2019-04-07T09:50:28.536Z,100223.08
2019-04-07T09:53:21.430Z,100224.66
2019-04-07T09:56:10.576Z,100225.45
2019-04-07T09:59:07.882Z,100225.53
2019-04-07T10:02:08.208Z,100220.01
2019-04-07T10:05:05.837Z,100224.50
2019-04-07T10:08:07.294Z,100222.97
2019-04-07T10:11:04.139Z,100216.48
2019-04-07T10:13:52.020Z,100218.18
2019-04-07T10:16:33.897Z,100228.25
2019-04-07T10:19:28.296Z,100221.23
2019-04-07T10:22:21.206Z,100227.75
2019-04-07T10:25:12.119Z,100220.96
2019-04-07T10:28:02.964Z,100215.46
2019-04-07T10:30:58.584Z,100224.64
2019-04-07T10:34:03.042Z,100216.95
2019-04-07T10:36:53.600Z,100214.60
2019-04-07T10:39:56.814Z,100208.38
2019-04-07T10:42:55.332Z,100210.52
2019-04-07T10:45:47.270Z,100216.77
2019-04-07T10:48:31.577Z,100209.66
2019-04-07T10:51:36.878Z,100213.91
2019-04-07T10:54:18.859Z,100215.27
2019-04-07T10:57:02.342Z,100211.17
2019-04-07T10:59:56.867Z,100212.45
2019-04-07T11:03:00.847Z,100204.36
2019-04-07T11:05:57.066Z,100201.95
2019-04-07T11:08:53.557Z,100199.63
2019-04-07T11:12:04.625Z,100203.67
2019-04-07T11:15:00.079Z,100202.42
2019-04-07T11:17:45.429Z,100207.97
2019-04-07T11:20:33.864Z,100205.30
2019-04-07T11:23:19.820Z,100202.34
2019-04-07T11:26:31.018Z,100202.53
2019-04-07T11:29:14.417Z,100198.33
2019-04-07T11:31:57.917Z,100199.70
2019-04-07T11:34:41.416Z,100201.71
2019-04-07T11:37:32.853Z,100198.80
2019-04-07T11:40:30.361Z,100207.00
2019-04-07T11:43:14.118Z,100207.39
2019-04-07T11:46:06.883Z,100202.95
2019-04-07T11:48:54.885Z,100192.42
2019-04-07T11:51:54.113Z,100194.04
2019-04-07T11:54:47.892Z,100198.59
2019-04-07T11:57:43.279Z,100190.67
2019-04-07T12:00:35.815Z,100188.64
2019-04-07T12:03:40.433Z,100182.97
2019-04-07T12:06:28.133Z,100182.99
2019-04-07T12:09:29.389Z,100190.63
2019-04-07T12:12:22.824Z,100185.50
2019-04-07T12:15:15.941Z,100181.07
2019-04-07T12:18:14.921Z,100193.09
2019-04-07T12:20:50.762Z,100186.55
2019-04-07T12:23:34.419Z,100181.23
2019-04-07T12:26:24.849Z,100179.09
2019-04-07T12:29:14.796Z,100181.89
2019-04-07T12:32:06.779Z,100188.08
2019-04-07T12:35:05.261Z,100175.61
2019-04-07T12:37:46.707Z,100170.47
2019-04-07T12:40:52.931Z,100176.64
2019-04-07T12:43:49.532Z,100170.30
2019-04-07T12:46:38.733Z,100171.77
2019-04-07T12:49:34.356Z,100173.50
2019-04-07T12:52:28.082Z,100169.48
2019-04-07T12:55:17.850Z,100158.09
2019-04-07T12:58:10.766Z,100161.22
2019-04-07T13:01:19.967Z,100168.12
2019-04-07T13:04:12.225Z,100157.95
2019-04-07T13:07:04.186Z,100158.47
2019-04-07T13:10:04.179Z,100161.54
2019-04-07T13:12:59.210Z,100158.91
2019-04-07T13:16:00.290Z,100152.76
2019-04-07T13:18:43.854Z,100152.13
2019-04-07T13:21:34.124Z,100149.98
2019-04-07T13:24:30.156Z,100145.85
2019-04-07T13:27:04.075Z,100144.38
2019-04-07T13:29:48.279Z,100149.86
2019-04-07T13:32:39.270Z,100142.63
2019-04-07T13:35:19.627Z,100137.62
2019-04-07T13:38:04.470Z,100147.39
2019-04-07T13:40:57.478Z,100140.64
2019-04-07T13:43:52.789Z,100140.98
2019-04-07T13:46:36.065Z,100134.97
2019-04-07T13:49:27.491Z,100133.34
2019-04-07T13:52:24.685Z,100143.11
2019-04-07T13:55:17.163Z,100139.11
2019-04-07T13:58:25.009Z,100137.16
2019-04-07T14:01:26.751Z,100137.64
2019-04-07T14:04:34.426Z,100133.17
2019-04-07T14:07:29.504Z,100133.34
2019-04-07T14:10:27.478Z,100133.43
2019-04-07T14:13:40.367Z,100130.09
2019-04-07T14:16:31.267Z,100130.28
2019-04-07T14:19:24.240Z,100135.28
2019-04-07T14:22:25.564Z,100136.63
2019-04-07T14:25:23.502Z,100130.17
2019-04-07T14:28:04.699Z,100135.42
2019-04-07T14:30:45.519Z,100129.30
2019-04-07T14:33:49.524Z,100132.94
2019-04-07T14:36:40.495Z,100135.02
2019-04-07T14:39:24.885Z,100131.87
2019-04-07T14:42:22.485Z,100128.46
2019-04-07T14:45:14.546Z,100129.61
2019-04-07T14:48:05.408Z,100124.66
2019-04-07T14:50:57.116Z,100126.14
2019-04-07T14:54:04.393Z,100126.99
2019-04-07T14:57:09.377Z,100127.59
2019-04-07T14:59:54.148Z,100123.35
2019-04-07T15:02:26.585Z,100126.25
2019-04-07T15:05:04.060Z,100124.94
2019-04-07T15:08:05.126Z,100117.59
2019-04-07T15:10:41.924Z,100112.92
2019-04-07T15:13:18.206Z,100118.52
2019-04-07T15:15:52.400Z,100108.86
2019-04-07T15:18:25.547Z,100117.75
2019-04-07T15:20:59.299Z,100112.70
2019-04-07T15:23:33.372Z,100122.84
2019-04-07T15:26:06.407Z,100120.88
2019-04-07T15:28:39.228Z,100120.36
2019-04-07T15:31:12.059Z,100119.22
2019-04-07T15:33:45.606Z,100121.32
2019-04-07T15:36:19.649Z,100123.28
2019-04-07T15:38:55.394Z,100123.39
2019-04-07T15:41:27.547Z,100126.98
2019-04-07T15:44:01.563Z,100122.84
2019-04-07T15:46:35.462Z,100123.83
2019-04-07T15:49:08.837Z,100127.64
2019-04-07T15:51:41.858Z,100125.89
2019-04-07T15:54:17.658Z,100127.89
2019-04-07T15:56:50.479Z,100124.89
2019-04-07T15:59:24.856Z,100133.30
2019-04-07T16:01:58.586Z,100131.05
2019-04-07T16:04:31.949Z,100133.45
2019-04-07T16:07:05.066Z,100132.86
2019-04-07T16:09:48.831Z,100138.71
2019-04-07T16:12:13.462Z,100141.79
2019-04-07T16:14:47.090Z,100143.63
2019-04-07T16:17:21.092Z,100144.92
2019-04-07T16:19:56.232Z,100144.97
2019-04-07T16:22:29.222Z,100147.64
2019-04-07T16:25:10.084Z,100152.59
2019-04-07T16:27:47.475Z,100154.03
2019-04-07T16:30:21.606Z,100155.14
2019-04-07T16:33:01.967Z,100156.16
2019-04-07T16:35:38.182Z,100159.84
2019-04-07T16:38:13.050Z,100157.78
2019-04-07T16:41:02.689Z,100162.87
2019-04-07T16:43:37.772Z,100162.19
2019-04-07T16:46:13.651Z,100155.33
2019-04-07T16:48:53.323Z,100159.94
2019-04-07T16:51:29.478Z,100166.32
2019-04-07T16:54:08.721Z,100170.95
2019-04-07T16:56:45.728Z,100168.84
2019-04-07T16:59:32.760Z,100169.48
2019-04-07T17:02:17.894Z,100166.70
2019-04-07T17:05:12.024Z,100161.87
2019-04-07T17:07:55.413Z,100169.16
2019-04-07T17:10:52.642Z,100165.38
2019-04-07T17:13:39.491Z,100168.13
2019-04-07T17:16:12.221Z,100164.56
2019-04-07T17:18:56.200Z,100167.91
2019-04-07T17:21:39.346Z,100172.56
2019-04-07T17:24:27.183Z,100169.19
2019-04-07T17:27:00.216Z,100167.65
2019-04-07T17:29:37.221Z,100176.83
2019-04-07T17:32:16.842Z,100176.81
2019-04-07T17:34:58.028Z,100181.04
2019-04-07T17:37:37.406Z,100183.97
2019-04-07T17:40:15.769Z,100187.85
2019-04-07T17:42:52.748Z,100189.10
2019-04-07T17:45:43.150Z,100180.66
2019-04-07T17:48:37.340Z,100188.02
2019-04-07T17:51:25.497Z,100187.88
2019-04-07T17:54:32.523Z,100193.20
2019-04-07T17:57:25.855Z,100194.03
2019-04-07T18:00:23.723Z,100197.52
2019-04-07T18:03:10.294Z,100203.61
2019-04-07T18:06:03.811Z,100207.39
2019-04-07T18:08:48.568Z,100210.27
2019-04-07T18:11:37.764Z,100214.53
2019-04-07T18:14:31.294Z,100219.27
2019-04-07T18:17:28.905Z,100223.97
2019-04-07T18:20:25.863Z,100227.64
2019-04-07T18:23:28.966Z,100232.16
2019-04-07T18:26:27.422Z,100237.72
2019-04-07T18:29:17.884Z,100238.73
2019-04-07T18:32:16.645Z,100238.00
2019-04-07T18:35:09.481Z,100241.69
2019-04-07T18:37:55.900Z,100244.92
2019-04-07T18:40:55.778Z,100244.23
2019-04-07T18:44:01.916Z,100253.67
2019-04-07T18:47:04.685Z,100256.47
2019-04-07T18:49:58.121Z,100255.25
2019-04-07T18:52:53.225Z,100261.55
2019-04-07T18:55:42.138Z,100261.94
2019-04-07T18:58:39.872Z,100259.34
2019-04-07T19:01:41.357Z,100272.98
2019-04-07T19:04:45.692Z,100274.42
2019-04-07T19:07:48.637Z,100275.27
2019-04-07T19:10:38.887Z,100269.23
2019-04-07T19:13:27.413Z,100272.20
2019-04-07T19:16:10.970Z,100272.88
2019-04-07T19:19:10.847Z,100277.12
2019-04-07T19:22:08.904Z,100278.61
2019-04-07T19:25:09.214Z,100277.85
2019-04-07T19:28:03.425Z,100279.31
2019-04-07T19:30:46.880Z,100277.27
2019-04-07T19:34:01.268Z,100274.95
2019-04-07T19:37:03.962Z,100274.87
2019-04-07T19:40:06.038Z,100266.89
2019-04-07T19:42:58.366Z,100268.73
2019-04-07T19:46:09.626Z,100268.89
2019-04-07T19:49:04.287Z,100265.88
2019-04-07T19:51:57.396Z,100266.45
2019-04-07T19:54:47.132Z,100262.98
2019-04-07T19:57:42.721Z,100263.52
2019-04-07T20:00:52.859Z,100267.11
2019-04-07T20:03:40.503Z,100270.25
2019-04-07T20:06:32.539Z,100267.73
2019-04-07T20:09:21.560Z,100269.11
2019-04-07T20:12:11.572Z,100269.62
2019-04-07T20:15:16.370Z,100263.95
2019-04-07T20:18:11.131Z,100267.92
2019-04-07T20:21:08.303Z,100264.51
2019-04-07T20:24:09.312Z,100269.84
2019-04-07T20:27:17.562Z,100268.09
2019-04-07T20:30:17.677Z,100265.95
2019-04-07T20:33:10.352Z,100268.16
2019-04-07T20:36:06.592Z,100267.36
2019-04-07T20:39:05.067Z,100266.05
2019-04-07T20:42:00.968Z,100270.98
2019-04-07T20:44:59.986Z,100268.81
2019-04-07T20:48:00.083Z,100269.34
2019-04-07T20:51:00.499Z,100267.66
2019-04-07T20:53:52.033Z,100266.37
2019-04-07T20:56:59.732Z,100265.55
2019-04-07T20:59:50.403Z,100272.17
2019-04-07T21:02:48.728Z,100269.12
2019-04-07T21:05:35.666Z,100268.27
2019-04-07T21:08:15.052Z,100276.20
2019-04-07T21:11:01.558Z,100275.39
2019-04-07T21:14:01.774Z,100272.75
2019-04-07T21:16:53.023Z,100277.13
2019-04-07T21:19:54.390Z,100275.00
2019-04-07T21:22:51.936Z,100267.97
2019-04-07T21:25:57.281Z,100271.47
2019-04-07T21:28:49.298Z,100271.91
2019-04-07T21:31:41.017Z,100271.03
2019-04-07T21:34:41.709Z,100272.77
2019-04-07T21:37:25.421Z,100273.69
2019-04-07T21:40:08.651Z,100273.67
2019-04-07T21:43:06.443Z,100274.11
2019-04-07T21:45:53.012Z,100273.67
2019-04-07T21:48:50.913Z,100272.81
2019-04-07T21:51:37.762Z,100271.06
2019-04-07T21:54:30.697Z,100272.36
2019-04-07T21:57:21.395Z,100272.81
2019-04-07T22:00:12.627Z,100272.38
2019-04-07T22:02:59.168Z,100269.74
2019-04-07T22:05:49.440Z,100267.99
2019-04-07T22:08:30.530Z,100266.25
2019-04-07T22:11:03.664Z,100268.42
2019-04-07T22:13:36.795Z,100274.13
2019-04-07T22:16:10.080Z,100277.63
2019-04-07T22:18:43.112Z,100266.68
2019-04-07T22:21:16.994Z,100273.25
2019-04-07T22:23:50.712Z,100276.28
2019-04-07T22:26:23.537Z,100271.45
2019-04-07T22:28:57.834Z,100276.23
2019-04-07T22:31:36.746Z,100272.32
2019-04-07T22:34:09.592Z,100272.76
2019-04-07T22:36:45.466Z,100277.12
2019-04-07T22:39:17.304Z,100267.86
2019-04-07T22:41:50.532Z,100271.36
2019-04-07T22:44:24.476Z,100268.72
2019-04-07T22:46:57.325Z,100267.41
2019-04-07T22:49:32.226Z,100270.47
2019-04-07T22:52:05.489Z,100269.14
2019-04-07T22:54:38.950Z,100268.70
2019-04-07T22:57:14.154Z,100266.94
2019-04-07T22:59:47.174Z,100262.12
2019-04-07T23:02:20.186Z,100270.42
2019-04-07T23:04:53.029Z,100265.96
2019-04-07T23:07:25.848Z,100265.08
2019-04-07T23:09:58.983Z,100263.73
2019-04-07T23:12:32.851Z,100266.75
2019-04-07T23:15:06.468Z,100261.48
2019-04-07T23:17:40.475Z,100267.11
2019-04-07T23:20:15.092Z,100264.88
2019-04-07T23:22:48.058Z,100268.80
2019-04-07T23:25:22.895Z,100275.79
2019-04-07T23:27:56.313Z,100265.70
2019-04-07T23:30:31.250Z,100270.03
2019-04-07T23:33:04.365Z,100273.54
2019-04-07T23:35:37.296Z,100278.33
2019-04-07T23:38:10.121Z,100275.22
2019-04-07T23:40:43.160Z,100279.61
2019-04-07T23:43:16.026Z,100276.52
2019-04-07T23:45:49.648Z,100276.05
2019-04-07T23:48:22.580Z,100281.70
2019-04-07T23:50:56.158Z,100290.34
2019-04-07T23:54:11.383Z,100289.72
2019-04-07T23:56:45.472Z,100294.03
2019-04-07T23:59:18.727Z,100284.77
